Time;durP1;ratioP1;P1;durP2;ratioP2;P2;SDS_P1;SDS_P2;PMS_P1;PMS_P2;Temp;Humidity;BMP_temperature;BMP_pressure;BME280_temperature;BME280_humidity;BME280_pressure;Samples;Min_cycle;Max_cycle;Signal;HPM_P1;HPM_P2
2023/10/30 00:01:08;;;;;;;;;;;;;;;;;;5041640;28;19991;-89
2023/10/30 00:03:33;;;;;;;;;;;;;;;;;;5016610;28;19929;-88
2023/10/30 00:06:00;;;;;;;;;;;;;;;;;;5035157;28;19913;-86
2023/10/30 00:08:34;;;;;;;;;;;;;;;;;;5048991;28;20004;-86
2023/10/30 00:10:59;;;;;;;;;;;;;;;;;;5034660;28;19963;-89
2023/10/30 00:13:25;;;;;;;;;;;;;;;;;;5034983;28;20447;-86
2023/10/30 00:15:55;;;;;;;;;;;;;;;;;;5048282;28;20648;-84
2023/10/30 00:18:20;;;;;;;;;;;;;;;;;;5047523;28;19920;-87
2023/10/30 00:20:48;;;;;;;;;;;;;;;;;;5032458;28;19913;-87
2023/10/30 00:23:13;;;;;;;;;;;;;;;;;;5017766;28;19924;-87
2023/10/30 00:25:41;;;;;;;;;;;;;;;;;;5017784;28;19917;-86
2023/10/30 00:28:06;;;;;;;;;;;;;;;;;;5018932;28;19955;-86
2023/10/30 00:30:32;;;;;;;;;;;;;;;;;;5034055;28;20274;-85
2023/10/30 00:32:57;;;;;;;;;;;;;;;;;;5034398;28;20420;-87
2023/10/30 00:35:22;;;;;;;;;;;;;;;;;;5018679;28;19934;-86
2023/10/30 00:37:47;;;;;;;;;;;;;;;;;;5017572;28;19953;-87
2023/10/30 00:40:13;;;;;;;;;;;;;;;;;;5017213;28;20007;-89
2023/10/30 00:42:39;;;;;;;;;;;;;;;;;;5033097;28;20008;-90
2023/10/30 00:45:05;;;;;;;;;;;;;;;;;;5030991;28;19913;-87
2023/10/30 00:47:30;;;;;;;;;;;;;;;;;;5017175;28;19940;-89
2023/10/30 00:49:56;;;;;;;;;;;;;;;;;;5018911;28;19929;-89
2023/10/30 00:52:23;;;;;;;;;;;;;;;;;;5034123;28;19913;-87
2023/10/30 00:54:49;;;;;;;;;;;;;;;;;;5025936;28;20346;-87
2023/10/30 00:57:14;;;;;;;;;;;;;;;;;;5033824;28;19927;-88
2023/10/30 00:59:40;;;;;;;;;;;;;;;;;;5014930;28;20504;-87
2023/10/30 01:02:06;;;;;;;;;;;;;;;;;;5032895;28;20094;-88
2023/10/30 01:04:33;;;;;;;;;;;;;;;;;;5015529;28;19923;-91
2023/10/30 01:06:58;;;;;;;;;;;;;;;;;;5033109;28;19921;-87
2023/10/30 01:09:24;;;;;;;;;;;;;;;;;;5032964;28;19928;-89
2023/10/30 01:11:52;;;;;;;;;;;;;;;;;;5013863;28;19914;-90
2023/10/30 01:14:18;;;;;;;;;;;;;;;;;;5015215;28;20321;-86
2023/10/30 01:16:43;;;;;;;;;;;;;;;;;;5032721;28;19977;-86
2023/10/30 01:19:09;;;;;;;;;;;;;;;;;;5047736;28;19928;-88
2023/10/30 01:21:35;;;;;;;;;;;;;;;;;;5014431;28;19928;-87
2023/10/30 01:24:06;;;;;;;;;;;;;;;;;;5031431;28;20028;-87
2023/10/30 01:26:31;;;;;;;;;;;;;;;;;;5017944;28;19936;-88
2023/10/30 01:28:57;;;;;;;;;;;;;;;;;;5031775;28;19913;-87
2023/10/30 01:31:27;;;;;;;;;;;;;;;;;;5014992;28;19913;-86
2023/10/30 01:33:52;;;;;;;;;;;;;;;;;;5031105;28;19925;-87
2023/10/30 01:36:18;;;;;;;;;;;;;;;;;;5033885;28;19940;-85
2023/10/30 01:38:43;;;;;;;;;;;;;;;;;;5034262;28;19917;-86
2023/10/30 01:41:12;;;;;;;;;;;;;;;;;;5015707;28;19924;-89
2023/10/30 01:43:40;;;;;;;;;;;;;;;;;;5014435;28;19918;-86
2023/10/30 01:46:21;;;;;;;;;;;;;;;;;;5013790;28;19913;-86
2023/10/30 01:48:46;;;;;;;;;;;;;;;;;;5031865;28;19975;-85
2023/10/30 01:51:12;;;;;;;;;;;;;;;;;;5029395;28;21700;-86
2023/10/30 01:53:38;;;;;;;;;;;;;;;;;;5029698;28;19913;-87
2023/10/30 01:56:04;;;;;;;;;;;;;;;;;;5016967;28;19987;-87
2023/10/30 01:58:29;;;;;;;;;;;;;;;;;;5034547;28;19920;-88
2023/10/30 02:00:55;;;;;;;;;;;;;;;;;;5036349;28;19937;-88
2023/10/30 02:03:21;;;;;;;;;;;;;;;;;;5040063;28;19913;-88
2023/10/30 02:05:48;;;;;;;;;;;;;;;;;;5038679;28;19975;-85
2023/10/30 02:08:14;;;;;;;;;;;;;;;;;;5037887;28;20127;-85
2023/10/30 02:10:40;;;;;;;;;;;;;;;;;;5015147;28;19983;-86
2023/10/30 02:13:09;;;;;;;;;;;;;;;;;;5031941;28;19921;-84
2023/10/30 02:15:34;;;;;;;;;;;;;;;;;;5018351;28;19927;-86
2023/10/30 02:18:01;;;;;;;;;;;;;;;;;;5018642;28;19925;-87
2023/10/30 02:20:27;;;;;;;;;;;;;;;;;;5018477;28;19967;-83
2023/10/30 02:22:54;;;;;;;;;;;;;;;;;;5032440;28;20497;-89
2023/10/30 02:25:19;;;;;;;;;;;;;;;;;;5016472;28;19913;-87
2023/10/30 02:27:45;;;;;;;;;;;;;;;;;;5015186;28;19913;-85
2023/10/30 02:30:14;;;;;;;;;;;;;;;;;;5046267;28;19932;-85
2023/10/30 02:32:44;;;;;;;;;;;;;;;;;;5033094;28;19920;-86
2023/10/30 02:35:09;;;;;;;;;;;;;;;;;;5013905;28;19947;-89
2023/10/30 02:37:37;;;;;;;;;;;;;;;;;;5013705;28;19921;-85
2023/10/30 02:40:04;;;;;;;;;;;;;;;;;;5016397;28;21878;-88
2023/10/30 02:42:29;;;;;;;;;;;;;;;;;;5029212;28;19921;-87
2023/10/30 02:44:54;;;;;;;;;;;;;;;;;;5033055;28;19929;-89
2023/10/30 02:47:24;;;;;;;;;;;;;;;;;;5031096;28;20004;-87
2023/10/30 02:49:49;;;;;;;;;;;;;;;;;;5011529;28;19932;-87
2023/10/30 02:52:14;;;;;;;;;;;;;;;;;;5027796;28;19917;-88
2023/10/30 02:54:39;;;;;;;;;;;;;;;;;;5033712;28;19916;-87
2023/10/30 02:57:05;;;;;;;;;;;;;;;;;;5031849;28;19927;-84
2023/10/30 02:59:30;;;;;;;;;;;;;;;;;;5034912;28;19994;-85
2023/10/30 03:01:56;;;;;;;;;;;;;;;;;;5039390;28;19924;-85
2023/10/30 03:04:22;;;;;;;;;;;;;;;;;;5020328;28;19921;-88
2023/10/30 03:06:48;;;;;;;;;;;;;;;;;;5020494;28;20338;-90
2023/10/30 03:09:13;;;;;;;;;;;;;;;;;;5023263;28;19913;-87
2023/10/30 03:11:38;;;;;;;;;;;;;;;;;;5022383;28;20004;-88
2023/10/30 03:14:04;;;;;;;;;;;;;;;;;;5041792;28;19943;-85
2023/10/30 03:16:29;;;;;;;;;;;;;;;;;;5028556;28;19916;-85
2023/10/30 03:18:55;;;;;;;;;;;;;;;;;;5059887;28;19920;-88
2023/10/30 03:21:20;;;;;;;;;;;;;;;;;;5038296;28;19913;-88
2023/10/30 03:23:46;;;;;;;;;;;;;;;;;;5052234;28;19937;-86
2023/10/30 03:26:12;;;;;;;;;;;;;;;;;;5030075;28;19944;-85
2023/10/30 03:28:37;;;;;;;;;;;;;;;;;;5034050;28;19980;-86
2023/10/30 03:31:02;;;;;;;;;;;;;;;;;;5032347;28;19917;-87
2023/10/30 03:33:27;;;;;;;;;;;;;;;;;;5034145;28;19948;-89
2023/10/30 03:35:54;;;;;;;;;;;;;;;;;;5051247;28;19920;-87
2023/10/30 03:38:22;;;;;;;;;;;;;;;;;;5051792;28;19921;-88
2023/10/30 03:40:48;;;;;;;;;;;;;;;;;;5039173;28;20337;-88
2023/10/30 03:43:16;;;;;;;;;;;;;;;;;;5045029;28;19963;-88
2023/10/30 03:45:41;;;;;;;;;;;;;;;;;;5043184;28;19912;-87
2023/10/30 03:48:06;;;;;;;;;;;;;;;;;;5029478;28;20388;-88
2023/10/30 03:50:31;;;;;;;;;;;;;;;;;;5026564;28;19976;-88
2023/10/30 03:55:44;;;;;;;;;;;;;;;;;;5054364;28;19916;-86
2023/10/30 03:58:10;;;;;;;;;;;;;;;;;;5048105;28;20353;-87
2023/10/30 04:00:35;;;;;;;;;;;;;;;;;;5026064;28;19925;-88
2023/10/30 04:03:00;;;;;;;;;;;;;;;;;;5026890;28;19969;-87
2023/10/30 04:05:29;;;;;;;;;;;;;;;;;;5042933;28;19912;-86
2023/10/30 04:07:54;;;;;;;;;;;;;;;;;;5027586;28;20046;-88
2023/10/30 04:10:20;;;;;;;;;;;;;;;;;;5025407;28;20015;-89
2023/10/30 04:12:45;;;;;;;;;;;;;;;;;;5024098;28;19917;-88
2023/10/30 04:15:15;;;;;;;;;;;;;;;;;;5042828;28;20266;-89
2023/10/30 04:17:40;;;;;;;;;;;;;;;;;;5025890;28;19923;-86
2023/10/30 04:20:05;;;;;;;;;;;;;;;;;;5023746;28;19913;-87
2023/10/30 04:22:31;;;;;;;;;;;;;;;;;;5026199;28;19990;-87
2023/10/30 04:24:56;;;;;;;;;;;;;;;;;;5027206;28;20346;-89
2023/10/30 04:27:21;;;;;;;;;;;;;;;;;;5024548;28;19913;-87
2023/10/30 04:29:46;;;;;;;;;;;;;;;;;;5026571;28;20021;-88
2023/10/30 04:32:12;;;;;;;;;;;;;;;;;;5023307;28;20004;-86
2023/10/30 04:34:40;;;;;;;;;;;;;;;;;;5040998;28;19920;-86
2023/10/30 04:37:06;;;;;;;;;;;;;;;;;;5044067;28;19920;-89
2023/10/30 04:39:34;;;;;;;;;;;;;;;;;;5027433;28;19920;-87
2023/10/30 04:42:03;;;;;;;;;;;;;;;;;;5024351;28;19983;-89
2023/10/30 04:47:45;;;;;;;;;;;;;;;;;;5080331;22;19924;-70
2023/10/30 04:50:10;;;;;;;;;;;;;;;;;;5034693;28;19924;-70
2023/10/30 04:52:36;;;;;;;;;;;;;;;;;;5018221;28;20508;-70
2023/10/30 04:55:03;;;;;;;;;;;;;;;;;;5015152;28;20379;-71
2023/10/30 04:57:29;;;;;;;;;;;;;;;;;;5012411;28;19921;-70
2023/10/30 04:59:54;;;;;;;;;;;;;;;;;;5032235;28;19942;-69
2023/10/30 05:02:20;;;;;;;;;;;;;;;;;;5001296;28;20336;-70
2023/10/30 05:04:45;;;;;;;;;;;;;;;;;;5029119;28;19928;-70
2023/10/30 05:07:11;;;;;;;;;;;;;;;;;;5035077;28;20390;-70
2023/10/30 05:09:36;;;;;;;;;;;;;;;;;;5013977;28;19921;-70
2023/10/30 05:12:02;;;;;;;;;;;;;;;;;;5031540;28;19959;-72
2023/10/30 05:14:28;;;;;;;;;;;;;;;;;;5010730;28;20373;-71
2023/10/30 05:16:53;;;;;;;;;;;;;;;;;;5031708;28;20022;-71
2023/10/30 05:19:19;;;;;;;;;;;;;;;;;;5015361;28;19920;-70
2023/10/30 05:21:44;;;;;;;;;;;;;;;;;;5033691;28;20124;-70
2023/10/30 05:24:09;;;;;;;;;;;;;;;;;;5022271;28;20418;-70
2023/10/30 05:26:35;;;;;;;;;;;;;;;;;;5003587;28;19920;-69
2023/10/30 05:29:00;;;;;;;;;;;;;;;;;;4998138;28;19932;-70
2023/10/30 05:31:26;;;;;;;;;;;;;;;;;;5004488;28;19917;-70
2023/10/30 05:33:51;;;;;;;;;;;;;;;;;;4986882;28;20613;-70
2023/10/30 05:36:16;;;;;;;;;;;;;;;;;;5018081;28;20920;-70
2023/10/30 05:38:42;;;;;;;;;;;;;;;;;;5017535;28;19921;-70
2023/10/30 05:41:08;;;;;;;;;;;;;;;;;;5002407;28;20035;-70
2023/10/30 05:43:33;;;;;;;;;;;;;;;;;;5001948;28;19924;-70
2023/10/30 05:45:59;;;;;;;;;;;;;;;;;;4981851;28;19917;-70
2023/10/30 05:48:24;;;;;;;;;;;;;;;;;;4984206;28;20830;-69
2023/10/30 05:50:50;;;;;;;;;;;;;;;;;;5018858;28;20371;-70
2023/10/30 05:53:15;;;;;;;;;;;;;;;;;;5018727;28;19924;-70
2023/10/30 05:55:41;;;;;;;;;;;;;;;;;;5000822;28;19929;-70
2023/10/30 05:58:06;;;;;;;;;;;;;;;;;;5003059;28;19925;-70
2023/10/30 06:00:32;;;;;;;;;;;;;;;;;;4981787;28;19917;-69
2023/10/30 06:02:57;;;;;;;;;;;;;;;;;;5015339;28;20287;-70
2023/10/30 06:05:22;;;;;;;;;;;;;;;;;;4997295;28;20241;-69
2023/10/30 06:07:50;;;;;;;;;;;;;;;;;;4979127;28;20020;-69
2023/10/30 06:10:19;;;;;;;;;;;;;;;;;;4985740;28;19917;-70
2023/10/30 06:12:47;;;;;;;;;;;;;;;;;;5003776;28;19921;-69
2023/10/30 06:15:12;;;;;;;;;;;;;;;;;;5002835;28;19956;-71
2023/10/30 06:17:37;;;;;;;;;;;;;;;;;;5003217;28;19916;-69
2023/10/30 06:20:03;;;;;;;;;;;;;;;;;;4981332;28;21583;-70
2023/10/30 06:22:29;;;;;;;;;;;;;;;;;;4996087;28;19921;-70
2023/10/30 06:24:54;;;;;;;;;;;;;;;;;;4980583;28;19944;-71
2023/10/30 06:27:19;;;;;;;;;;;;;;;;;;5000216;28;20437;-74
2023/10/30 06:29:45;;;;;;;;;;;;;;;;;;4997193;28;19924;-70
2023/10/30 06:32:10;;;;;;;;;;;;;;;;;;5003539;28;19922;-71
2023/10/30 06:34:38;;;;;;;;;;;;;;;;;;5001472;28;19929;-70
2023/10/30 06:37:03;;;;;;;;;;;;;;;;;;5019793;28;19996;-70
2023/10/30 06:39:28;;;;;;;;;;;;;;;;;;5003586;28;20013;-70
2023/10/30 06:41:56;;;;;;;;;;;;;;;;;;4998016;28;19921;-69
2023/10/30 06:44:21;;;;;;;;;;;;;;;;;;5002377;28;20378;-69
2023/10/30 06:46:50;;;;;;;;;;;;;;;;;;5018190;28;19916;-69
2023/10/30 06:49:15;;;;;;;;;;;;;;;;;;5001984;28;20288;-69
2023/10/30 06:51:41;;;;;;;;;;;;;;;;;;4996539;28;19914;-68
2023/10/30 06:54:06;;;;;;;;;;;;;;;;;;4981708;28;19972;-68
2023/10/30 06:56:31;;;;;;;;;;;;;;;;;;4983943;28;19925;-68
2023/10/30 06:58:57;;;;;;;;;;;;;;;;;;5017859;28;19924;-68
2023/10/30 07:01:23;;;;;;;;;;;;;;;;;;5001671;28;20175;-70
2023/10/30 07:03:48;;;;;;;;;;;;;;;;;;5018515;28;20373;-69
2023/10/30 07:06:13;;;;;;;;;;;;;;;;;;5000925;28;20403;-70
2023/10/30 07:08:39;;;;;;;;;;;;;;;;;;5005519;28;20490;-68
2023/10/30 07:11:04;;;;;;;;;;;;;;;;;;5022129;28;19928;-68
2023/10/30 07:13:30;;;;;;;;;;;;;;;;;;5002923;28;19917;-75
2023/10/30 07:15:55;;;;;;;;;;;;;;;;;;5007225;28;19920;-70
2023/10/30 07:18:22;;;;;;;;;;;;;;;;;;5020654;28;20196;-69
2023/10/30 07:20:48;;;;;;;;;;;;;;;;;;4990210;28;19928;-69
2023/10/30 07:23:14;;;;;;;;;;;;;;;;;;4976531;28;21266;-69
2023/10/30 07:25:39;;;;;;;;;;;;;;;;;;4988041;28;19924;-71
2023/10/30 07:28:04;;;;;;;;;;;;;;;;;;5005341;28;19928;-69
2023/10/30 07:30:30;;;;;;;;;;;;;;;;;;5020601;28;19932;-70
2023/10/30 07:32:55;;;;;;;;;;;;;;;;;;5018307;28;19921;-71
2023/10/30 07:35:21;;;;;;;;;;;;;;;;;;4988897;28;20455;-69
2023/10/30 07:37:49;;;;;;;;;;;;;;;;;;5006763;28;19917;-70
2023/10/30 07:40:14;;;;;;;;;;;;;;;;;;5004705;28;19917;-69
2023/10/30 07:42:42;;;;;;;;;;;;;;;;;;5005358;28;19924;-70
2023/10/30 07:45:07;;;;;;;;;;;;;;;;;;5003184;28;19917;-69
2023/10/30 07:47:33;;;;;;;;;;;;;;;;;;4986156;28;19913;-72
2023/10/30 07:50:00;;;;;;;;;;;;;;;;;;4999675;28;19920;-70
2023/10/30 07:52:26;;;;;;;;;;;;;;;;;;5009220;28;20372;-70
2023/10/30 07:54:54;;;;;;;;;;;;;;;;;;4982094;28;19924;-69
2023/10/30 07:57:19;;;;;;;;;;;;;;;;;;5004199;28;20394;-69
2023/10/30 07:59:45;;;;;;;;;;;;;;;;;;4983604;28;19917;-73
2023/10/30 08:02:10;;;;;;;;;;;;;;;;;;4983486;28;20277;-70
2023/10/30 08:04:36;;;;;;;;;;;;;;;;;;5022145;28;20020;-71
2023/10/30 08:07:03;;;;;;;;;;;;;;;;;;4999922;28;19929;-69
2023/10/30 08:09:29;;;;;;;;;;;;;;;;;;5005470;28;19928;-70
2023/10/30 08:11:55;;;;;;;;;;;;;;;;;;5019571;28;19999;-69
2023/10/30 08:14:23;;;;;;;;;;;;;;;;;;5005021;28;19913;-69
2023/10/30 08:16:51;;;;;;;;;;;;;;;;;;5012705;28;19925;-68
2023/10/30 08:19:16;;;;;;;;;;;;;;;;;;5002804;28;20380;-70
2023/10/30 08:21:42;;;;;;;;;;;;;;;;;;5005694;28;19921;-70
2023/10/30 08:24:09;;;;;;;;;;;;;;;;;;5006832;28;19924;-71
2023/10/30 08:26:34;;;;;;;;;;;;;;;;;;5020752;28;19917;-71
2023/10/30 08:28:59;;;;;;;;;;;;;;;;;;5018564;28;20505;-70
2023/10/30 08:31:27;;;;;;;;;;;;;;;;;;5020531;28;19919;-69
2023/10/30 08:33:54;;;;;;;;;;;;;;;;;;4988510;28;20474;-71
2023/10/30 08:36:19;;;;;;;;;;;;;;;;;;5003995;28;19932;-68
2023/10/30 08:38:44;;;;;;;;;;;;;;;;;;5018588;28;19924;-70
2023/10/30 08:41:11;;;;;;;;;;;;;;;;;;5021542;28;20298;-70
2023/10/30 08:43:36;;;;;;;;;;;;;;;;;;5021012;28;20541;-71
2023/10/30 08:46:02;;;;;;;;;;;;;;;;;;5002859;28;20009;-75
2023/10/30 08:48:27;;;;;;;;;;;;;;;;;;4983866;28;19925;-72
2023/10/30 08:50:53;;;;;;;;;;;;;;;;;;5001628;28;19960;-72
2023/10/30 08:53:21;;;;;;;;;;;;;;;;;;4997008;28;19918;-73
2023/10/30 08:55:46;;;;;;;;;;;;;;;;;;5000169;28;20040;-69
2023/10/30 08:58:12;;;;;;;;;;;;;;;;;;4996773;28;20327;-69
2023/10/30 09:00:37;;;;;;;;;;;;;;;;;;4997184;28;19925;-69
2023/10/30 09:03:05;;;;;;;;;;;;;;;;;;4985255;28;19979;-70
2023/10/30 09:05:31;;;;;;;;;;;;;;;;;;5000432;28;20400;-69
2023/10/30 09:07:56;;;;;;;;;;;;;;;;;;4982136;28;19921;-71
2023/10/30 09:10:26;;;;;;;;;;;;;;;;;;5005287;28;19917;-70
2023/10/30 09:12:51;;;;;;;;;;;;;;;;;;5001400;28;19977;-70
2023/10/30 09:15:17;;;;;;;;;;;;;;;;;;4998745;28;20452;-69
2023/10/30 09:17:42;;;;;;;;;;;;;;;;;;5014679;28;19925;-70
2023/10/30 09:20:12;;;;;;;;;;;;;;;;;;4998547;28;19951;-72
2023/10/30 09:22:37;;;;;;;;;;;;;;;;;;5001665;28;19956;-69
2023/10/30 09:25:02;;;;;;;;;;;;;;;;;;4980731;28;19960;-70
2023/10/30 09:27:27;;;;;;;;;;;;;;;;;;4996784;28;19921;-74
2023/10/30 09:29:53;;;;;;;;;;;;;;;;;;4979364;28;19918;-69
2023/10/30 09:32:20;;;;;;;;;;;;;;;;;;4998990;28;19956;-69
2023/10/30 09:34:48;;;;;;;;;;;;;;;;;;4996826;28;19917;-68
2023/10/30 09:37:13;;;;;;;;;;;;;;;;;;4997900;28;20185;-75
2023/10/30 09:39:39;;;;;;;;;;;;;;;;;;4999279;28;20387;-70
2023/10/30 09:42:04;;;;;;;;;;;;;;;;;;4996681;28;19971;-69
2023/10/30 09:44:30;;;;;;;;;;;;;;;;;;4995668;28;19968;-70
2023/10/30 09:46:55;;;;;;;;;;;;;;;;;;4998689;28;19928;-68
2023/10/30 09:49:20;;;;;;;;;;;;;;;;;;4997278;28;20379;-68
2023/10/30 09:51:46;;;;;;;;;;;;;;;;;;4998962;28;20365;-68
2023/10/30 09:54:12;;;;;;;;;;;;;;;;;;4998824;28;19925;-74
2023/10/30 09:56:37;;;;;;;;;;;;;;;;;;4999299;28;20368;-68
2023/10/30 09:59:03;;;;;;;;;;;;;;;;;;4994777;28;20021;-68
2023/10/30 10:01:28;;;;;;;;;;;;;;;;;;4996666;28;20127;-68
2023/10/30 10:03:53;;;;;;;;;;;;;;;;;;4996912;28;20261;-67
2023/10/30 10:06:34;;;;;;;;;;;;;;;;;;4997948;28;19921;-67
2023/10/30 10:08:59;;;;;;;;;;;;;;;;;;4997260;28;19971;-67
2023/10/30 10:14:16;;;;;;;;;;;;;;;;;;4995789;28;20361;-70
2023/10/30 10:16:42;;;;;;;;;;;;;;;;;;4981182;28;19956;-68
2023/10/30 10:19:07;;;;;;;;;;;;;;;;;;4995163;28;19924;-68
2023/10/30 10:21:32;;;;;;;;;;;;;;;;;;4996966;28;19980;-68
2023/10/30 10:24:00;;;;;;;;;;;;;;;;;;4978332;28;19922;-68
2023/10/30 10:26:25;;;;;;;;;;;;;;;;;;4995170;28;19929;-68
2023/10/30 10:28:51;;;;;;;;;;;;;;;;;;4997477;28;19921;-68
2023/10/30 10:31:16;;;;;;;;;;;;;;;;;;4997597;28;19959;-68
2023/10/30 10:33:43;;;;;;;;;;;;;;;;;;4997742;28;19932;-68
2023/10/30 10:36:09;;;;;;;;;;;;;;;;;;4996732;28;19977;-69
2023/10/30 10:38:35;;;;;;;;;;;;;;;;;;4997095;28;20364;-68
2023/10/30 10:41:00;;;;;;;;;;;;;;;;;;4995850;28;19944;-68
2023/10/30 10:43:26;;;;;;;;;;;;;;;;;;4999309;28;19928;-68
2023/10/30 10:45:51;;;;;;;;;;;;;;;;;;4995430;28;19921;-68
2023/10/30 10:48:18;;;;;;;;;;;;;;;;;;5000455;28;19974;-70
2023/10/30 10:50:43;;;;;;;;;;;;;;;;;;5017789;28;19921;-74
2023/10/30 10:53:08;;;;;;;;;;;;;;;;;;4981918;28;19944;-69
2023/10/30 10:55:33;;;;;;;;;;;;;;;;;;4985502;28;20304;-69
2023/10/30 10:57:59;;;;;;;;;;;;;;;;;;5003714;28;19916;-69
2023/10/30 11:00:28;;;;;;;;;;;;;;;;;;4996507;28;19940;-68
2023/10/30 11:02:53;;;;;;;;;;;;;;;;;;5002408;28;19913;-69
2023/10/30 11:05:29;;;;;;;;;;;;;;;;;;5000274;28;19924;-68
2023/10/30 11:07:54;;;;;;;;;;;;;;;;;;4985109;28;20530;-68
2023/10/30 11:10:19;;;;;;;;;;;;;;;;;;4982506;28;19921;-71
2023/10/30 11:12:45;;;;;;;;;;;;;;;;;;4998336;28;20338;-68
2023/10/30 11:15:12;;;;;;;;;;;;;;;;;;5002267;28;19921;-69
2023/10/30 11:17:37;;;;;;;;;;;;;;;;;;4981165;28;19925;-71
2023/10/30 11:20:03;;;;;;;;;;;;;;;;;;5002649;28;19920;-69
2023/10/30 11:22:28;;;;;;;;;;;;;;;;;;5003850;28;20676;-68
2023/10/30 11:24:54;;;;;;;;;;;;;;;;;;4996045;28;19952;-71
2023/10/30 11:27:19;;;;;;;;;;;;;;;;;;5018554;28;19940;-69
2023/10/30 11:29:44;;;;;;;;;;;;;;;;;;5002182;28;20662;-70
2023/10/30 11:32:10;;;;;;;;;;;;;;;;;;5018008;28;20004;-68
2023/10/30 11:34:35;;;;;;;;;;;;;;;;;;5002148;28;19921;-72
2023/10/30 11:37:00;;;;;;;;;;;;;;;;;;4985852;28;20509;-69
2023/10/30 11:39:26;;;;;;;;;;;;;;;;;;4998923;28;19967;-72
2023/10/30 11:41:53;;;;;;;;;;;;;;;;;;4981625;28;19921;-69
2023/10/30 11:44:18;;;;;;;;;;;;;;;;;;4986433;28;20911;-69
2023/10/30 11:46:49;;;;;;;;;;;;;;;;;;5017252;28;19927;-67
2023/10/30 11:49:14;;;;;;;;;;;;;;;;;;5000341;28;19931;-67
2023/10/30 11:51:39;;;;;;;;;;;;;;;;;;5019423;28;19917;-69
2023/10/30 11:54:05;;;;;;;;;;;;;;;;;;4984090;28;19925;-68
2023/10/30 11:56:30;;;;;;;;;;;;;;;;;;5003948;28;20296;-68
2023/10/30 11:58:56;;;;;;;;;;;;;;;;;;5019547;28;19917;-68
2023/10/30 12:01:21;;;;;;;;;;;;;;;;;;4984172;28;19924;-70
2023/10/30 12:03:46;;;;;;;;;;;;;;;;;;4989711;28;20288;-69
2023/10/30 12:06:12;;;;;;;;;;;;;;;;;;5008058;28;19921;-68
2023/10/30 12:08:38;;;;;;;;;;;;;;;;;;5015246;28;20031;-68
2023/10/30 12:11:03;;;;;;;;;;;;;;;;;;5021886;28;20152;-67
2023/10/30 12:13:28;;;;;;;;;;;;;;;;;;4983799;28;19921;-69
2023/10/30 12:15:53;;;;;;;;;;;;;;;;;;5020383;28;19921;-69
2023/10/30 12:18:19;;;;;;;;;;;;;;;;;;5019280;28;19927;-68
2023/10/30 12:20:44;;;;;;;;;;;;;;;;;;5003242;28;19928;-72
2023/10/30 12:23:09;;;;;;;;;;;;;;;;;;5019586;28;20371;-68
2023/10/30 12:25:35;;;;;;;;;;;;;;;;;;5003792;28;20426;-69
2023/10/30 12:28:01;;;;;;;;;;;;;;;;;;5004167;28;19939;-67
2023/10/30 12:30:28;;;;;;;;;;;;;;;;;;5018834;28;20135;-67
2023/10/30 12:32:57;;;;;;;;;;;;;;;;;;5019338;28;20415;-67
2023/10/30 12:35:22;;;;;;;;;;;;;;;;;;5018519;28;20802;-71
2023/10/30 12:37:48;;;;;;;;;;;;;;;;;;5018038;28;20004;-69
2023/10/30 12:40:13;;;;;;;;;;;;;;;;;;4987280;28;20332;-67
2023/10/30 12:42:38;;;;;;;;;;;;;;;;;;5004628;28;19925;-67
2023/10/30 12:45:05;;;;;;;;;;;;;;;;;;4983028;28;19921;-69
2023/10/30 12:47:31;;;;;;;;;;;;;;;;;;5000918;28;20028;-68
2023/10/30 12:49:56;;;;;;;;;;;;;;;;;;4987351;28;19925;-69
2023/10/30 12:52:23;;;;;;;;;;;;;;;;;;5020101;28;19913;-67
2023/10/30 12:54:51;;;;;;;;;;;;;;;;;;5018350;28;19967;-67
2023/10/30 12:57:16;;;;;;;;;;;;;;;;;;5020972;28;19932;-67
2023/10/30 12:59:41;;;;;;;;;;;;;;;;;;5002107;28;19948;-68
2023/10/30 13:02:08;;;;;;;;;;;;;;;;;;4985542;28;19917;-68
2023/10/30 13:04:36;;;;;;;;;;;;;;;;;;4994902;28;19921;-67
2023/10/30 13:07:01;;;;;;;;;;;;;;;;;;5019531;28;19998;-67
2023/10/30 13:09:26;;;;;;;;;;;;;;;;;;5000008;28;20021;-67
2023/10/30 13:11:52;;;;;;;;;;;;;;;;;;5004231;28;19928;-68
2023/10/30 13:14:17;;;;;;;;;;;;;;;;;;5017572;28;19925;-68
2023/10/30 13:16:42;;;;;;;;;;;;;;;;;;5003706;28;19921;-68
2023/10/30 13:19:09;;;;;;;;;;;;;;;;;;5018379;28;21354;-68
2023/10/30 13:21:35;;;;;;;;;;;;;;;;;;5004338;28;20182;-67
2023/10/30 13:24:00;;;;;;;;;;;;;;;;;;5005332;28;20371;-67
2023/10/30 13:29:42;;;;;;;;;;;;;;;;;;5021660;28;20407;-66
2023/10/30 13:32:08;;;;;;;;;;;;;;;;;;4982450;28;19921;-66
2023/10/30 13:34:33;;;;;;;;;;;;;;;;;;5018066;28;19928;-69
2023/10/30 13:37:01;;;;;;;;;;;;;;;;;;5001940;28;19921;-66
2023/10/30 13:39:29;;;;;;;;;;;;;;;;;;4987434;28;19940;-66
2023/10/30 13:41:54;;;;;;;;;;;;;;;;;;5002359;28;20411;-68
2023/10/30 13:44:20;;;;;;;;;;;;;;;;;;4998064;28;19925;-68
2023/10/30 13:46:45;;;;;;;;;;;;;;;;;;5004041;28;19921;-68
2023/10/30 13:49:10;;;;;;;;;;;;;;;;;;5001482;28;20004;-68
2023/10/30 13:51:37;;;;;;;;;;;;;;;;;;4999946;28;20533;-68
2023/10/30 13:54:02;;;;;;;;;;;;;;;;;;4974340;28;21545;-68
2023/10/30 13:56:27;;;;;;;;;;;;;;;;;;5001998;28;19976;-69
2023/10/30 13:58:55;;;;;;;;;;;;;;;;;;5017041;28;19920;-68
2023/10/30 14:01:20;;;;;;;;;;;;;;;;;;5018862;28;19925;-68
2023/10/30 14:03:46;;;;;;;;;;;;;;;;;;4981350;28;20371;-67
2023/10/30 14:06:11;;;;;;;;;;;;;;;;;;5020836;28;19921;-67
2023/10/30 14:08:37;;;;;;;;;;;;;;;;;;5019083;28;19940;-67
2023/10/30 14:11:03;;;;;;;;;;;;;;;;;;5015836;28;19985;-66
2023/10/30 14:13:31;;;;;;;;;;;;;;;;;;4997256;28;19928;-67
2023/10/30 14:15:57;;;;;;;;;;;;;;;;;;4999228;28;19925;-67
2023/10/30 14:18:24;;;;;;;;;;;;;;;;;;5017080;28;19917;-66
2023/10/30 14:20:49;;;;;;;;;;;;;;;;;;4999673;28;20159;-69
2023/10/30 14:23:14;;;;;;;;;;;;;;;;;;5001182;28;20335;-68
2023/10/30 14:25:40;;;;;;;;;;;;;;;;;;5001963;28;20070;-66
2023/10/30 14:28:08;;;;;;;;;;;;;;;;;;5002699;28;19917;-66
2023/10/30 14:30:34;;;;;;;;;;;;;;;;;;5009722;28;20299;-68
2023/10/30 14:32:59;;;;;;;;;;;;;;;;;;4980305;28;20012;-67
2023/10/30 14:35:24;;;;;;;;;;;;;;;;;;5002554;28;19964;-67
2023/10/30 14:37:49;;;;;;;;;;;;;;;;;;4987817;28;20029;-67
2023/10/30 14:40:15;;;;;;;;;;;;;;;;;;4982144;28;19931;-68
2023/10/30 14:42:40;;;;;;;;;;;;;;;;;;5000572;28;20006;-68
2023/10/30 14:45:05;;;;;;;;;;;;;;;;;;5015630;28;20934;-68
2023/10/30 14:47:33;;;;;;;;;;;;;;;;;;4987031;28;20908;-68
2023/10/30 14:50:01;;;;;;;;;;;;;;;;;;4989477;28;19929;-68
2023/10/30 14:52:29;;;;;;;;;;;;;;;;;;4977724;28;20568;-67
2023/10/30 14:54:57;;;;;;;;;;;;;;;;;;4978184;28;20361;-67
2023/10/30 14:57:22;;;;;;;;;;;;;;;;;;4964684;28;20378;-68
2023/10/30 14:59:48;;;;;;;;;;;;;;;;;;4977613;28;20040;-68
2023/10/30 15:02:13;;;;;;;;;;;;;;;;;;4960243;28;19922;-67
2023/10/30 15:04:41;;;;;;;;;;;;;;;;;;4977387;28;20032;-67
2023/10/30 15:07:06;;;;;;;;;;;;;;;;;;4976764;28;20012;-67
2023/10/30 15:09:42;;;;;;;;;;;;;;;;;;4957271;28;19917;-67
2023/10/30 15:12:13;;;;;;;;;;;;;;;;;;4976467;28;19973;-67
2023/10/30 15:15:01;;;;;;;;;;;;;;;;;;4975278;28;19920;-67
2023/10/30 15:17:30;;;;;;;;;;;;;;;;;;4990466;28;20758;-67
2023/10/30 15:19:55;;;;;;;;;;;;;;;;;;4975124;28;20362;-67
2023/10/30 15:22:21;;;;;;;;;;;;;;;;;;4991740;28;19990;-68
2023/10/30 15:24:46;;;;;;;;;;;;;;;;;;4975427;28;19924;-67
2023/10/30 15:27:17;;;;;;;;;;;;;;;;;;4975889;28;19921;-67
2023/10/30 15:29:42;;;;;;;;;;;;;;;;;;4980465;28;19936;-68
2023/10/30 15:32:08;;;;;;;;;;;;;;;;;;4980169;28;19918;-68
2023/10/30 15:34:33;;;;;;;;;;;;;;;;;;4979394;28;20988;-66
2023/10/30 15:37:01;;;;;;;;;;;;;;;;;;4978128;28;19965;-67
2023/10/30 15:39:26;;;;;;;;;;;;;;;;;;4979737;28;19960;-67
2023/10/30 15:41:51;;;;;;;;;;;;;;;;;;4981964;28;19952;-67
2023/10/30 15:44:19;;;;;;;;;;;;;;;;;;4961308;28;19984;-68
2023/10/30 15:46:44;;;;;;;;;;;;;;;;;;4963740;28;19922;-68
2023/10/30 15:49:09;;;;;;;;;;;;;;;;;;4986780;28;19936;-67
2023/10/30 15:51:35;;;;;;;;;;;;;;;;;;5001084;28;20310;-67
2023/10/30 15:54:01;;;;;;;;;;;;;;;;;;4997378;28;19921;-68
2023/10/30 15:56:26;;;;;;;;;;;;;;;;;;4982788;28;20347;-68
2023/10/30 15:58:51;;;;;;;;;;;;;;;;;;5000715;28;20369;-68
2023/10/30 16:01:16;;;;;;;;;;;;;;;;;;4998620;28;19944;-68
2023/10/30 16:03:42;;;;;;;;;;;;;;;;;;4998152;28;20016;-68
2023/10/30 16:06:07;;;;;;;;;;;;;;;;;;4998079;28;20843;-68
2023/10/30 16:08:33;;;;;;;;;;;;;;;;;;4982896;28;19952;-69
2023/10/30 16:10:58;;;;;;;;;;;;;;;;;;4999628;28;20457;-67
2023/10/30 16:13:27;;;;;;;;;;;;;;;;;;5014073;28;19927;-67
2023/10/30 16:15:53;;;;;;;;;;;;;;;;;;4989771;28;19925;-67
2023/10/30 16:18:18;;;;;;;;;;;;;;;;;;5015973;28;20297;-68
2023/10/30 16:20:44;;;;;;;;;;;;;;;;;;5002643;28;19914;-68
2023/10/30 16:23:09;;;;;;;;;;;;;;;;;;4999750;28;19928;-68
2023/10/30 16:25:34;;;;;;;;;;;;;;;;;;4981912;28;19936;-68
2023/10/30 16:28:06;;;;;;;;;;;;;;;;;;4997088;28;20005;-67
2023/10/30 16:30:31;;;;;;;;;;;;;;;;;;4995630;28;19929;-67
2023/10/30 16:32:57;;;;;;;;;;;;;;;;;;5000710;28;19921;-67
2023/10/30 16:35:22;;;;;;;;;;;;;;;;;;4980403;28;19999;-67
2023/10/30 16:37:50;;;;;;;;;;;;;;;;;;4982399;28;19992;-67
2023/10/30 16:40:15;;;;;;;;;;;;;;;;;;4999076;28;19928;-67
2023/10/30 16:42:41;;;;;;;;;;;;;;;;;;4997807;28;19918;-67
2023/10/30 16:45:08;;;;;;;;;;;;;;;;;;4997281;28;19917;-68
2023/10/30 16:47:37;;;;;;;;;;;;;;;;;;5001076;28;20405;-69
2023/10/30 16:50:03;;;;;;;;;;;;;;;;;;5006623;28;21621;-67